Millersville, Missouri
Current Conditions -  °F | °C
As of 1:53 AM on Tuesday 27 Jan 2015 (Local Time) from KCGI Reporting Station
Haze Haze  
Wind Chill: 22°   Ceiling: Unl
Heat Index: 29°   Visibility: 5mi
Dew Point: 29°   Wind: 7mph
Humidity: 100%   Direction: 250°WSW
Pressure: 29.93"   Gusts: NA
Location:  37.43°N, 89.8°W
Report Text: KCGI 270753Z AUTO 25006KT 5SM BR CLR M02/M02 A2993 RMK AO2 SLP137 T10171017 TSNO
Loading
Personal Weather Stations






























Interactive Weather Map New forecast layout! Learn more

10-Day Weather Forecast

Advertisements
Track Severe Weather on mobile